createdAt,value
2023-07-30T00:01:11.462Z,16.46
2023-07-30T00:03:38.836Z,16.45
2023-07-30T00:06:06.100Z,16.44
2023-07-30T00:08:33.424Z,16.42
2023-07-30T00:11:00.655Z,16.41
2023-07-30T00:13:27.912Z,16.39
2023-07-30T00:15:55.477Z,16.39
2023-07-30T00:18:22.776Z,16.39
2023-07-30T00:20:50.148Z,16.38
2023-07-30T00:23:17.455Z,16.37
2023-07-30T00:25:44.872Z,16.37
2023-07-30T00:28:12.307Z,16.35
2023-07-30T00:30:39.580Z,16.32
2023-07-30T00:33:06.817Z,16.29
2023-07-30T00:35:34.084Z,16.26
2023-07-30T00:40:48.568Z,16.24
2023-07-30T00:43:15.882Z,16.20
2023-07-30T00:45:44.274Z,16.18
2023-07-30T00:48:12.454Z,16.17
2023-07-30T00:50:39.743Z,16.16
2023-07-30T00:53:07.485Z,16.15
2023-07-30T00:55:36.040Z,16.12
2023-07-30T00:58:04.489Z,16.12
2023-07-30T01:00:33.111Z,16.09
2023-07-30T01:03:00.379Z,16.07
2023-07-30T01:05:27.709Z,16.07
2023-07-30T01:07:55.185Z,16.07
2023-07-30T01:10:22.808Z,16.06
2023-07-30T01:12:50.227Z,16.04
2023-07-30T01:15:17.527Z,16.01
2023-07-30T01:17:45.338Z,15.99
2023-07-30T01:20:13.246Z,15.97
2023-07-30T01:22:40.894Z,15.95
2023-07-30T01:25:08.784Z,15.92
2023-07-30T01:27:42.454Z,15.87
2023-07-30T01:30:17.647Z,15.82
2023-07-30T01:32:45.001Z,15.79
2023-07-30T01:35:12.484Z,15.78
2023-07-30T01:37:39.873Z,15.76
2023-07-30T01:40:08.227Z,15.74
2023-07-30T01:42:35.465Z,15.72
2023-07-30T01:45:02.768Z,15.69
2023-07-30T01:47:30.111Z,15.65
2023-07-30T01:49:57.334Z,15.63
2023-07-30T01:52:25.687Z,15.62
2023-07-30T01:54:53.043Z,15.60
2023-07-30T01:57:20.330Z,15.60
2023-07-30T01:59:47.568Z,15.59
2023-07-30T02:02:14.895Z,15.59
2023-07-30T02:04:42.199Z,15.58
2023-07-30T02:07:09.532Z,15.58
2023-07-30T02:09:36.925Z,15.58
2023-07-30T02:12:04.343Z,15.57
2023-07-30T02:14:31.606Z,15.54
2023-07-30T02:17:01.723Z,15.51
2023-07-30T02:19:28.924Z,15.48
2023-07-30T02:21:56.358Z,15.43
2023-07-30T02:24:23.689Z,15.39
2023-07-30T02:26:50.906Z,15.37
2023-07-30T02:29:18.363Z,15.34
2023-07-30T02:31:45.673Z,15.31
2023-07-30T02:34:13.121Z,15.29
2023-07-30T02:36:40.375Z,15.29
2023-07-30T02:39:07.599Z,15.29
2023-07-30T02:41:34.993Z,15.29
2023-07-30T02:44:02.698Z,15.30
2023-07-30T02:46:31.268Z,15.32
2023-07-30T02:48:58.691Z,15.34
2023-07-30T02:51:26.153Z,15.33
2023-07-30T02:53:54.533Z,15.32
2023-07-30T02:56:21.860Z,15.32
2023-07-30T02:58:49.168Z,15.34
2023-07-30T03:01:16.761Z,15.44
2023-07-30T03:03:44.083Z,15.70
2023-07-30T03:06:11.361Z,15.91
2023-07-30T03:08:39.704Z,16.17
2023-07-30T03:11:07.010Z,16.69
2023-07-30T03:13:34.233Z,17.33
2023-07-30T03:16:01.616Z,17.99
2023-07-30T03:18:28.878Z,18.66
2023-07-30T03:21:01.986Z,19.30
2023-07-30T03:23:29.304Z,19.88
2023-07-30T03:25:56.708Z,20.40
2023-07-30T03:28:24.274Z,20.89
2023-07-30T03:30:51.722Z,21.37
2023-07-30T03:33:18.988Z,21.85
2023-07-30T03:35:46.146Z,22.34
2023-07-30T03:38:13.409Z,22.69
2023-07-30T03:40:42.000Z,22.61
2023-07-30T03:43:09.437Z,22.48
2023-07-30T03:45:36.740Z,22.55
2023-07-30T03:48:04.369Z,22.45
2023-07-30T03:50:31.702Z,22.38
2023-07-30T03:52:59.233Z,22.32
2023-07-30T03:55:26.517Z,22.21
2023-07-30T03:57:53.813Z,22.10
2023-07-30T04:00:21.248Z,21.98
2023-07-30T04:02:48.466Z,21.91
2023-07-30T04:05:15.807Z,22.08
2023-07-30T04:07:43.151Z,22.08
2023-07-30T04:10:10.635Z,21.94
2023-07-30T04:12:38.030Z,21.77
2023-07-30T04:15:06.027Z,21.61
2023-07-30T04:17:33.306Z,21.51
2023-07-30T04:20:00.615Z,21.43
2023-07-30T04:22:28.481Z,21.36
2023-07-30T04:24:55.802Z,21.32
2023-07-30T04:27:23.021Z,21.42
2023-07-30T04:29:50.473Z,21.89
2023-07-30T04:32:17.940Z,22.70
2023-07-30T04:34:45.386Z,23.59
2023-07-30T04:37:12.879Z,24.43
2023-07-30T04:39:40.462Z,25.20
2023-07-30T04:42:08.407Z,25.93
2023-07-30T04:44:35.788Z,26.63
2023-07-30T04:47:11.348Z,27.38
2023-07-30T04:49:41.477Z,28.04
2023-07-30T04:52:09.325Z,28.64
2023-07-30T04:54:39.656Z,29.19
2023-07-30T04:57:07.151Z,29.61
2023-07-30T04:59:37.247Z,29.90
2023-07-30T05:02:04.669Z,30.16
2023-07-30T05:04:31.986Z,30.41
2023-07-30T05:06:59.234Z,30.64
2023-07-30T05:09:26.443Z,30.82
2023-07-30T05:11:53.837Z,30.92
2023-07-30T05:14:21.145Z,31.03
2023-07-30T05:16:48.430Z,30.98
2023-07-30T05:19:17.070Z,30.92
2023-07-30T05:21:44.530Z,30.98
2023-07-30T05:24:11.838Z,31.13
2023-07-30T05:26:39.407Z,31.23
2023-07-30T05:29:06.724Z,31.32
2023-07-30T05:31:34.536Z,31.53
2023-07-30T05:34:02.148Z,31.83
2023-07-30T05:36:29.722Z,32.05
2023-07-30T05:38:57.580Z,32.39
2023-07-30T05:41:24.848Z,32.75
2023-07-30T05:43:52.080Z,33.10
2023-07-30T05:46:19.393Z,33.39
2023-07-30T05:48:46.958Z,33.63
2023-07-30T05:51:14.276Z,33.79
2023-07-30T05:53:41.690Z,33.94
2023-07-30T05:56:08.927Z,34.06
2023-07-30T05:58:36.144Z,34.11
2023-07-30T06:01:03.481Z,34.20
2023-07-30T06:03:30.911Z,34.45
2023-07-30T06:05:58.179Z,34.72
2023-07-30T06:08:26.394Z,34.83
2023-07-30T06:10:54.532Z,34.64
2023-07-30T06:13:22.092Z,34.18
2023-07-30T06:15:49.410Z,33.71
2023-07-30T06:18:16.997Z,33.26
2023-07-30T06:20:44.702Z,32.83
2023-07-30T06:23:12.084Z,32.51
2023-07-30T06:25:40.007Z,32.25
2023-07-30T06:28:07.553Z,32.00
2023-07-30T06:30:35.127Z,31.85
2023-07-30T06:33:02.440Z,31.84
2023-07-30T06:35:29.684Z,31.80
2023-07-30T06:37:57.163Z,31.75
2023-07-30T06:40:24.606Z,31.68
2023-07-30T06:42:51.908Z,31.63
2023-07-30T06:45:19.653Z,31.59
2023-07-30T06:47:47.775Z,31.57
2023-07-30T06:50:15.235Z,31.60
2023-07-30T06:52:42.746Z,31.66
2023-07-30T06:55:12.570Z,31.75
2023-07-30T06:57:39.957Z,31.86
2023-07-30T07:00:08.028Z,31.95
2023-07-30T07:02:35.888Z,31.97
2023-07-30T07:05:03.711Z,31.95
2023-07-30T07:07:31.778Z,31.92
2023-07-30T07:09:59.095Z,31.91
2023-07-30T07:12:26.506Z,31.92
2023-07-30T07:14:53.802Z,31.82
2023-07-30T07:17:21.237Z,31.75
2023-07-30T07:19:48.627Z,31.80
2023-07-30T07:22:16.126Z,31.83
2023-07-30T07:24:43.368Z,31.78
2023-07-30T07:27:10.783Z,31.71
2023-07-30T07:29:38.359Z,31.65
2023-07-30T07:32:06.025Z,31.58
2023-07-30T07:34:33.334Z,31.56
2023-07-30T07:37:00.568Z,31.59
2023-07-30T07:39:27.801Z,31.67
2023-07-30T07:41:55.356Z,31.70
2023-07-30T07:44:23.574Z,31.78
2023-07-30T07:46:50.959Z,31.91
2023-07-30T07:49:19.325Z,31.89
2023-07-30T07:51:47.101Z,31.85
2023-07-30T07:54:14.449Z,31.64
2023-07-30T07:56:42.765Z,31.49
2023-07-30T07:59:10.039Z,31.38
2023-07-30T08:01:37.596Z,31.24
2023-07-30T08:04:05.408Z,31.12
2023-07-30T08:06:33.438Z,31.04
2023-07-30T08:09:01.696Z,31.01
2023-07-30T08:11:28.954Z,30.90
2023-07-30T08:13:56.416Z,30.80
2023-07-30T08:16:23.874Z,30.67
2023-07-30T08:18:51.229Z,30.51
2023-07-30T08:21:21.475Z,30.33
2023-07-30T08:23:48.891Z,30.21
2023-07-30T08:26:16.870Z,30.04
2023-07-30T08:28:44.257Z,29.83
2023-07-30T08:31:11.863Z,29.73
2023-07-30T08:33:39.503Z,29.67
2023-07-30T08:36:06.870Z,29.54
2023-07-30T08:38:41.666Z,29.33
2023-07-30T08:41:09.931Z,29.14
2023-07-30T08:43:38.026Z,28.99
2023-07-30T08:46:05.353Z,28.84
2023-07-30T08:48:32.631Z,28.74
2023-07-30T08:50:59.958Z,28.61
2023-07-30T08:53:27.815Z,28.46
2023-07-30T08:55:55.902Z,28.32
2023-07-30T08:58:27.513Z,28.14
2023-07-30T09:00:58.549Z,27.96
2023-07-30T09:03:26.987Z,27.79
2023-07-30T09:05:54.341Z,27.63
2023-07-30T09:08:21.738Z,27.50
2023-07-30T09:10:51.584Z,27.40
2023-07-30T09:13:23.415Z,27.32
2023-07-30T09:15:53.593Z,27.21
2023-07-30T09:18:20.980Z,27.13
2023-07-30T09:20:48.224Z,27.05
2023-07-30T09:23:15.575Z,26.96
2023-07-30T09:25:42.870Z,26.83
2023-07-30T09:28:11.302Z,26.72
2023-07-30T09:30:38.661Z,26.60
2023-07-30T09:33:06.084Z,26.49
2023-07-30T09:35:34.132Z,26.39
2023-07-30T09:38:03.763Z,26.25
2023-07-30T09:40:35.359Z,26.10
2023-07-30T09:43:06.299Z,25.98
2023-07-30T09:45:37.392Z,25.87
2023-07-30T09:48:08.622Z,25.75
2023-07-30T09:50:37.637Z,25.58
2023-07-30T09:53:05.269Z,25.45
2023-07-30T09:55:33.355Z,25.37
2023-07-30T09:58:00.586Z,25.33
2023-07-30T10:00:28.719Z,25.31
2023-07-30T10:02:56.792Z,25.30
2023-07-30T10:05:25.922Z,25.35
2023-07-30T10:08:05.114Z,25.47
2023-07-30T10:10:32.545Z,25.58
2023-07-30T10:13:01.328Z,25.69
2023-07-30T10:15:28.820Z,25.86
2023-07-30T10:17:58.006Z,26.05
2023-07-30T10:20:27.651Z,26.22
2023-07-30T10:22:55.806Z,26.36
2023-07-30T10:25:25.932Z,26.48
2023-07-30T10:27:53.408Z,26.56
2023-07-30T10:30:21.469Z,26.70
2023-07-30T10:32:58.786Z,26.81
2023-07-30T10:35:44.492Z,26.85
2023-07-30T10:38:14.876Z,26.85
2023-07-30T10:40:42.291Z,26.86
2023-07-30T10:43:17.028Z,26.80
2023-07-30T10:45:51.947Z,26.80
2023-07-30T10:48:19.653Z,26.95
2023-07-30T10:50:49.843Z,27.07
2023-07-30T10:53:19.484Z,27.06
2023-07-30T10:55:46.781Z,27.04
2023-07-30T10:58:14.829Z,27.07
2023-07-30T11:00:42.629Z,27.06
2023-07-30T11:03:10.408Z,27.04
2023-07-30T11:05:40.894Z,27.02
2023-07-30T11:08:08.128Z,27.04
2023-07-30T11:10:43.447Z,27.11
2023-07-30T11:13:11.040Z,27.21
2023-07-30T11:15:44.961Z,27.30
2023-07-30T11:18:14.587Z,27.35
2023-07-30T11:20:42.534Z,27.34
2023-07-30T11:23:22.478Z,27.33
2023-07-30T11:25:52.601Z,27.45
2023-07-30T11:28:30.101Z,27.50
2023-07-30T11:31:04.955Z,27.59
2023-07-30T11:33:32.348Z,27.73
2023-07-30T11:36:00.655Z,27.75
2023-07-30T11:38:28.487Z,27.78
2023-07-30T11:40:55.729Z,27.88
2023-07-30T11:43:23.236Z,27.96
2023-07-30T11:45:51.290Z,28.00
2023-07-30T11:48:18.794Z,28.06
2023-07-30T11:50:53.159Z,28.06
2023-07-30T11:53:20.678Z,27.93
2023-07-30T11:55:48.004Z,27.81
2023-07-30T11:58:15.218Z,27.78
2023-07-30T12:00:44.798Z,27.80
2023-07-30T12:03:13.905Z,27.77
2023-07-30T12:05:41.633Z,27.71
2023-07-30T12:08:16.348Z,27.66
2023-07-30T12:10:44.996Z,27.64
2023-07-30T12:13:19.521Z,27.65
2023-07-30T12:15:55.680Z,27.81
2023-07-30T12:25:15.662Z,28.28
2023-07-30T12:27:43.022Z,28.33
2023-07-30T12:30:10.783Z,28.38
2023-07-30T12:32:37.984Z,28.45
2023-07-30T12:35:05.957Z,28.53
2023-07-30T12:37:33.968Z,28.63
2023-07-30T12:40:01.364Z,28.84
2023-07-30T12:42:28.604Z,29.06
2023-07-30T12:44:57.072Z,29.20
2023-07-30T12:47:25.240Z,29.12
2023-07-30T12:49:52.482Z,29.03
2023-07-30T12:52:19.800Z,28.99
2023-07-30T12:54:47.429Z,28.96
2023-07-30T12:58:41.451Z,28.85
2023-07-30T13:01:08.869Z,28.72
2023-07-30T13:03:37.865Z,28.57
2023-07-30T13:06:05.511Z,28.39
2023-07-30T13:08:33.461Z,28.21
2023-07-30T13:11:00.764Z,27.89
2023-07-30T13:13:28.286Z,27.55
2023-07-30T13:15:59.279Z,27.29
2023-07-30T13:18:27.750Z,27.04
2023-07-30T13:20:56.084Z,26.81
2023-07-30T13:23:26.948Z,26.63
2023-07-30T13:25:55.551Z,26.47
2023-07-30T13:28:23.452Z,26.27
2023-07-30T13:30:52.429Z,26.02
2023-07-30T13:33:19.816Z,25.77
2023-07-30T13:35:47.101Z,25.56
2023-07-30T13:38:14.626Z,25.07
2023-07-30T13:40:42.003Z,24.56
2023-07-30T13:43:09.216Z,24.37
2023-07-30T13:45:36.679Z,24.33
2023-07-30T13:48:04.655Z,24.34
2023-07-30T13:50:33.973Z,24.38
2023-07-30T13:53:02.027Z,24.44
2023-07-30T13:55:29.454Z,24.52
2023-07-30T13:57:56.759Z,24.56
2023-07-30T14:00:24.169Z,24.66
2023-07-30T14:02:52.128Z,24.77
2023-07-30T14:05:19.384Z,24.88
2023-07-30T14:07:46.762Z,24.97
2023-07-30T14:10:14.113Z,25.01
2023-07-30T14:12:41.506Z,25.04
2023-07-30T14:15:09.938Z,25.10
2023-07-30T14:17:37.239Z,25.16
2023-07-30T14:20:04.927Z,25.23
2023-07-30T14:22:32.192Z,25.31
2023-07-30T14:25:00.064Z,25.40
2023-07-30T14:27:27.354Z,25.52
2023-07-30T14:29:55.411Z,25.63
2023-07-30T14:32:24.276Z,25.73
2023-07-30T14:34:51.525Z,25.81
2023-07-30T14:37:18.769Z,25.89
2023-07-30T14:39:46.876Z,25.97
2023-07-30T14:42:14.248Z,26.02
2023-07-30T14:44:41.427Z,26.02
2023-07-30T14:47:09.678Z,26.00
2023-07-30T14:49:38.614Z,25.98
2023-07-30T14:52:06.462Z,25.92
2023-07-30T14:54:34.795Z,25.85
2023-07-30T14:57:02.105Z,25.78
2023-07-30T14:59:29.348Z,25.66
2023-07-30T15:01:56.713Z,25.52
2023-07-30T15:04:24.712Z,25.39
2023-07-30T15:06:51.901Z,25.27
2023-07-30T15:09:19.231Z,25.13
2023-07-30T15:11:46.437Z,24.98
2023-07-30T15:14:13.865Z,24.88
2023-07-30T15:16:41.493Z,24.87
2023-07-30T15:19:09.146Z,24.86
2023-07-30T15:21:38.789Z,24.83
2023-07-30T15:24:06.392Z,24.79
2023-07-30T15:26:33.995Z,24.77
2023-07-30T15:29:04.305Z,24.75
2023-07-30T15:31:33.958Z,24.73
2023-07-30T15:34:04.628Z,24.70
2023-07-30T15:36:32.022Z,24.65
2023-07-30T15:38:59.801Z,24.58
2023-07-30T15:41:27.749Z,24.53
2023-07-30T15:43:55.124Z,24.50
2023-07-30T15:46:24.073Z,24.47
2023-07-30T15:48:51.358Z,24.45
2023-07-30T15:51:18.821Z,24.44
2023-07-30T15:53:46.191Z,24.42
2023-07-30T15:56:13.464Z,24.34
2023-07-30T15:58:40.670Z,24.26
2023-07-30T16:01:11.073Z,24.22
2023-07-30T16:03:38.902Z,24.19
2023-07-30T16:06:07.354Z,24.16
2023-07-30T16:08:36.873Z,24.14
2023-07-30T16:11:12.119Z,24.12
2023-07-30T16:13:39.425Z,24.10
2023-07-30T16:16:14.457Z,24.11
2023-07-30T16:18:44.783Z,24.09
2023-07-30T16:21:12.708Z,24.09
2023-07-30T16:23:40.094Z,24.09
2023-07-30T16:26:08.021Z,24.05
2023-07-30T16:28:35.629Z,24.00
2023-07-30T16:31:03.297Z,23.88
2023-07-30T16:33:30.925Z,23.79
2023-07-30T16:35:58.580Z,23.73
2023-07-30T16:38:25.971Z,23.61
2023-07-30T16:40:53.913Z,23.50
2023-07-30T16:43:21.648Z,23.42
2023-07-30T16:45:49.081Z,23.38
2023-07-30T16:48:17.939Z,23.35
2023-07-30T16:50:49.692Z,23.28
2023-07-30T16:53:17.161Z,23.22
2023-07-30T16:55:44.466Z,23.15
2023-07-30T16:58:11.828Z,23.12
2023-07-30T17:00:39.319Z,23.09
2023-07-30T17:03:08.410Z,23.06
2023-07-30T17:05:35.814Z,23.04
2023-07-30T17:08:03.265Z,23.03
2023-07-30T17:10:30.567Z,23.04
2023-07-30T17:12:57.934Z,23.05
2023-07-30T17:15:25.409Z,23.07
2023-07-30T17:17:52.787Z,23.08
2023-07-30T17:20:20.400Z,23.08
2023-07-30T17:22:47.925Z,23.07
2023-07-30T17:25:15.972Z,23.03
2023-07-30T17:27:43.640Z,22.94
2023-07-30T17:30:12.067Z,22.87
2023-07-30T17:32:39.939Z,22.82
2023-07-30T17:35:07.846Z,22.73
2023-07-30T17:37:35.798Z,22.63
2023-07-30T17:40:03.871Z,22.58
2023-07-30T17:42:31.449Z,22.53
2023-07-30T17:44:58.846Z,22.47
2023-07-30T17:47:26.398Z,22.41
2023-07-30T17:49:57.501Z,22.37
2023-07-30T17:52:26.194Z,22.32
2023-07-30T17:54:54.819Z,22.27
2023-07-30T17:57:22.360Z,22.23
2023-07-30T17:59:49.904Z,22.18
2023-07-30T18:02:21.873Z,22.13
2023-07-30T18:04:50.242Z,22.09
2023-07-30T18:07:18.815Z,22.03
2023-07-30T18:09:47.125Z,21.98
2023-07-30T18:12:15.954Z,21.93
2023-07-30T18:14:44.964Z,21.88
2023-07-30T18:17:12.513Z,21.84
2023-07-30T18:19:40.519Z,21.78
2023-07-30T18:22:08.272Z,21.72
2023-07-30T18:24:37.828Z,21.64
2023-07-30T18:27:08.381Z,21.59
2023-07-30T18:29:36.048Z,21.55
2023-07-30T18:32:07.780Z,21.50
2023-07-30T18:34:38.282Z,21.45
2023-07-30T18:37:05.848Z,21.41
2023-07-30T18:39:33.908Z,21.38
2023-07-30T18:42:01.610Z,21.34
2023-07-30T18:44:29.384Z,21.31
2023-07-30T18:47:01.876Z,21.28
2023-07-30T18:49:29.420Z,21.24
2023-07-30T18:51:56.764Z,21.22
2023-07-30T18:54:24.124Z,21.17
2023-07-30T18:56:51.737Z,21.12
2023-07-30T18:59:19.010Z,21.09
2023-07-30T19:01:46.599Z,21.04
2023-07-30T19:04:13.979Z,20.97
2023-07-30T19:06:41.597Z,20.93
2023-07-30T19:09:08.925Z,20.91
2023-07-30T19:11:36.273Z,20.90
2023-07-30T19:14:03.596Z,20.88
2023-07-30T19:16:30.941Z,20.87
2023-07-30T19:18:59.692Z,20.85
2023-07-30T19:21:27.034Z,20.84
2023-07-30T19:23:54.525Z,20.81
2023-07-30T19:26:22.076Z,20.79
2023-07-30T19:28:50.115Z,20.77
2023-07-30T19:31:18.023Z,20.76
2023-07-30T19:33:45.793Z,20.74
2023-07-30T19:36:13.421Z,20.72
2023-07-30T19:38:41.270Z,20.69
2023-07-30T19:41:25.881Z,20.65
2023-07-30T19:43:55.632Z,20.63
2023-07-30T19:46:24.773Z,20.60
2023-07-30T19:48:53.272Z,20.59
2023-07-30T19:51:22.033Z,20.55
2023-07-30T19:53:50.053Z,20.52
2023-07-30T19:56:17.685Z,20.49
2023-07-30T19:58:45.217Z,20.47
2023-07-30T20:01:12.545Z,20.45
2023-07-30T20:03:39.887Z,20.43
2023-07-30T20:06:07.949Z,20.40
2023-07-30T20:08:36.580Z,20.37
2023-07-30T20:11:05.736Z,20.35
2023-07-30T20:13:33.034Z,20.32
2023-07-30T20:16:00.480Z,20.29
2023-07-30T20:18:28.227Z,20.25
2023-07-30T20:20:55.522Z,20.23
2023-07-30T20:23:23.316Z,20.21
2023-07-30T20:25:50.719Z,20.19
2023-07-30T20:28:18.212Z,20.16
2023-07-30T20:30:45.561Z,20.11
2023-07-30T20:33:12.848Z,20.07
2023-07-30T20:35:40.219Z,20.04
2023-07-30T20:38:07.561Z,20.01
2023-07-30T20:40:34.841Z,19.97
2023-07-30T20:43:02.080Z,19.95
2023-07-30T20:45:29.432Z,19.92
2023-07-30T20:47:56.781Z,19.88
2023-07-30T20:50:24.168Z,19.85
2023-07-30T20:52:51.480Z,19.82
2023-07-30T20:55:19.800Z,19.79
2023-07-30T20:57:47.144Z,19.75
2023-07-30T21:00:14.616Z,19.73
2023-07-30T21:02:42.088Z,19.70
2023-07-30T21:05:09.729Z,19.66
2023-07-30T21:07:37.306Z,19.64
2023-07-30T21:10:05.135Z,19.61
2023-07-30T21:12:32.723Z,19.57
2023-07-30T21:15:03.663Z,19.50
2023-07-30T21:17:32.483Z,19.46
2023-07-30T21:19:59.743Z,19.39
2023-07-30T21:22:27.295Z,19.31
2023-07-30T21:24:54.587Z,19.26
2023-07-30T21:27:21.959Z,19.23
2023-07-30T21:29:49.239Z,19.21
2023-07-30T21:32:16.625Z,19.19
2023-07-30T21:34:44.442Z,19.19
2023-07-30T21:37:11.734Z,19.18
2023-07-30T21:39:38.948Z,19.18
2023-07-30T21:42:06.307Z,19.16
2023-07-30T21:44:33.966Z,19.14
2023-07-30T21:47:01.454Z,19.12
2023-07-30T21:49:29.606Z,19.11
2023-07-30T21:51:59.727Z,19.10
2023-07-30T21:54:26.997Z,19.09
2023-07-30T21:56:54.248Z,19.08
2023-07-30T21:59:21.554Z,19.05
2023-07-30T22:01:48.816Z,19.02
2023-07-30T22:04:16.171Z,19.00
2023-07-30T22:06:44.153Z,18.98
2023-07-30T22:09:11.762Z,18.97
2023-07-30T22:11:39.011Z,18.96
2023-07-30T22:14:06.244Z,18.96
2023-07-30T22:16:33.553Z,18.97
2023-07-30T22:19:00.742Z,18.95
2023-07-30T22:21:27.950Z,18.94
2023-07-30T22:23:55.266Z,18.92
2023-07-30T22:26:23.045Z,18.88
2023-07-30T22:28:50.318Z,18.85
2023-07-30T22:31:17.561Z,18.83
2023-07-30T22:33:44.791Z,18.81
2023-07-30T22:36:12.036Z,18.78
2023-07-30T22:38:39.248Z,18.75
2023-07-30T22:41:06.462Z,18.73
2023-07-30T22:43:33.710Z,18.73
2023-07-30T22:46:01.335Z,18.73
2023-07-30T22:48:28.569Z,18.73
2023-07-30T22:50:55.822Z,18.72
2023-07-30T22:53:23.208Z,18.70
2023-07-30T22:55:50.427Z,18.68
2023-07-30T22:58:17.645Z,18.66
2023-07-30T23:00:44.973Z,18.64
2023-07-30T23:03:12.248Z,18.63
2023-07-30T23:05:39.663Z,18.62
2023-07-30T23:08:06.894Z,18.60
2023-07-30T23:10:34.212Z,18.60
2023-07-30T23:13:04.382Z,18.58
2023-07-30T23:15:31.696Z,18.56
2023-07-30T23:17:59.642Z,18.55
2023-07-30T23:20:27.233Z,18.52
2023-07-30T23:22:54.505Z,18.51
2023-07-30T23:25:21.736Z,18.50
2023-07-30T23:27:49.008Z,18.48
2023-07-30T23:30:16.278Z,18.47
2023-07-30T23:32:43.546Z,18.45
2023-07-30T23:35:11.007Z,18.41
2023-07-30T23:37:39.078Z,18.39
2023-07-30T23:40:06.916Z,18.36
2023-07-30T23:42:34.179Z,18.35
2023-07-30T23:45:01.395Z,18.33
2023-07-30T23:47:28.635Z,18.31
2023-07-30T23:49:55.975Z,18.29
2023-07-30T23:52:23.186Z,18.26
2023-07-30T23:54:50.385Z,18.25
2023-07-30T23:57:17.689Z,18.22
2023-07-30T23:59:44.942Z,18.20
